createdAt,value
2018-06-22T00:00:23.058Z,1.60
2018-06-22T00:05:25.188Z,1.70
2018-06-22T00:10:27.330Z,1.93
2018-06-22T00:15:29.513Z,1.83
2018-06-22T00:20:31.674Z,1.63
2018-06-22T00:25:33.823Z,1.80
2018-06-22T00:30:35.956Z,1.10
2018-06-22T00:35:38.111Z,1.83
2018-06-22T00:40:40.221Z,1.80
2018-06-22T00:45:42.351Z,1.53
2018-06-22T00:50:44.489Z,1.20
2018-06-22T00:55:46.613Z,1.70
2018-06-22T01:00:48.747Z,1.27
2018-06-22T01:05:50.888Z,1.57
2018-06-22T01:10:52.994Z,1.40
2018-06-22T01:15:55.136Z,1.20
2018-06-22T01:20:57.265Z,1.60
2018-06-22T01:25:59.408Z,2.30
2018-06-22T01:31:01.584Z,1.60
2018-06-22T01:36:03.763Z,1.40
2018-06-22T01:41:05.882Z,1.70
2018-06-22T01:46:08.037Z,1.47
2018-06-22T01:51:10.167Z,1.23
2018-06-22T01:56:12.274Z,1.43
2018-06-22T02:01:14.365Z,1.10
2018-06-22T02:06:16.464Z,1.57
2018-06-22T02:11:18.630Z,1.60
2018-06-22T02:16:20.814Z,2.47
2018-06-22T02:21:22.974Z,1.43
2018-06-22T02:26:25.109Z,2.27
2018-06-22T02:31:27.246Z,0.90
2018-06-22T02:36:29.372Z,1.50
2018-06-22T02:41:31.493Z,1.30
2018-06-22T02:46:33.633Z,1.07
2018-06-22T02:51:35.916Z,1.40
2018-06-22T02:56:38.064Z,1.23
2018-06-22T03:01:40.197Z,1.67
2018-06-22T03:06:42.315Z,1.50
2018-06-22T03:11:44.419Z,1.03
2018-06-22T03:16:46.569Z,1.30
2018-06-22T03:21:48.662Z,1.60
2018-06-22T03:26:50.789Z,1.20
2018-06-22T03:31:52.941Z,1.50
2018-06-22T03:36:55.088Z,1.57
2018-06-22T03:41:57.215Z,1.10
2018-06-22T03:46:59.348Z,1.63
2018-06-22T03:52:01.468Z,1.00
2018-06-22T03:57:03.570Z,1.47
2018-06-22T04:02:05.770Z,1.10
2018-06-22T04:12:38.844Z,1.70
2018-06-22T04:17:47.075Z,2.30
2018-06-22T04:22:50.079Z,1.60
2018-06-22T04:27:52.558Z,1.10
2018-06-22T04:32:54.640Z,1.20
2018-06-22T04:37:56.826Z,1.10
2018-06-22T04:42:58.949Z,1.50
2018-06-22T04:48:01.084Z,1.50
2018-06-22T04:53:03.225Z,1.23
2018-06-22T04:58:05.344Z,1.23
2018-06-22T05:03:07.466Z,1.50
2018-06-22T05:08:09.916Z,1.40
2018-06-22T05:13:12.188Z,1.37
2018-06-22T05:18:14.343Z,1.50
2018-06-22T05:23:16.482Z,1.57
2018-06-22T05:28:18.588Z,1.10
2018-06-22T05:33:20.698Z,1.33
2018-06-22T05:38:22.838Z,1.03
2018-06-22T05:43:25.005Z,1.10
2018-06-22T05:48:27.180Z,1.60
2018-06-22T05:53:29.319Z,1.63
2018-06-22T05:58:31.470Z,1.23
2018-06-22T06:03:33.644Z,1.63
2018-06-22T06:08:35.809Z,1.77
2018-06-22T06:13:37.987Z,1.67
2018-06-22T06:18:40.152Z,2.37
2018-06-22T06:28:57.871Z,2.00
2018-06-22T06:33:59.965Z,1.77
2018-06-22T06:39:02.125Z,1.63
2018-06-22T06:44:04.285Z,1.90
2018-06-22T06:49:06.444Z,2.70
2018-06-22T06:54:08.571Z,2.10
2018-06-22T06:59:10.687Z,2.27
2018-06-22T07:04:12.829Z,2.03
2018-06-22T07:09:14.946Z,2.43
2018-06-22T07:14:17.141Z,2.40
2018-06-22T07:19:19.310Z,2.93
2018-06-22T07:24:21.489Z,2.20
2018-06-22T07:29:25.626Z,2.30
2018-06-22T07:34:27.744Z,2.33
2018-06-22T07:39:29.879Z,1.90
2018-06-22T07:44:32.087Z,1.70
2018-06-22T07:49:34.301Z,2.03
2018-06-22T07:54:36.479Z,2.10
2018-06-22T07:59:38.962Z,1.80
2018-06-22T08:04:41.122Z,2.30
2018-06-22T08:09:43.305Z,1.93
2018-06-22T08:14:45.442Z,1.77
2018-06-22T08:19:47.662Z,2.13
2018-06-22T08:24:49.893Z,1.90
2018-06-22T08:29:52.038Z,1.27
2018-06-22T08:34:54.192Z,2.13
2018-06-22T08:39:56.543Z,1.60
2018-06-22T08:44:58.672Z,1.37
2018-06-22T08:50:00.993Z,2.03
2018-06-22T08:55:03.132Z,2.50
2018-06-22T09:00:05.298Z,2.23
2018-06-22T09:05:07.619Z,1.90
2018-06-22T09:10:09.787Z,2.00
2018-06-22T09:15:11.954Z,1.73
2018-06-22T09:20:14.133Z,1.90
2018-06-22T09:25:16.299Z,2.87
2018-06-22T09:30:18.450Z,2.23
2018-06-22T09:35:21.006Z,1.47
2018-06-22T09:40:23.180Z,2.13
2018-06-22T09:45:25.337Z,2.17
2018-06-22T09:50:27.512Z,2.00
2018-06-22T09:55:29.667Z,2.13
2018-06-22T10:00:31.851Z,1.80
2018-06-22T10:05:33.974Z,1.90
2018-06-22T10:10:36.120Z,1.93
2018-06-22T10:15:38.300Z,2.00
2018-06-22T10:20:40.498Z,1.50
2018-06-22T10:25:43.247Z,1.80
2018-06-22T10:30:45.558Z,2.27
2018-06-22T10:35:47.804Z,1.83
2018-06-22T10:40:50.077Z,2.00
2018-06-22T10:45:52.244Z,2.70
2018-06-22T10:50:54.476Z,3.60
2018-06-22T10:55:56.734Z,2.07
2018-06-22T11:00:58.947Z,3.20
2018-06-22T11:06:06.568Z,2.97
2018-06-22T11:11:09.158Z,2.20
2018-06-22T11:16:18.154Z,2.23
2018-06-22T11:21:20.538Z,1.70
2018-06-22T11:26:22.726Z,2.47
2018-06-22T11:31:24.910Z,2.50
2018-06-22T11:36:27.164Z,2.13
2018-06-22T11:41:29.348Z,2.60
2018-06-22T11:46:31.528Z,2.67
2018-06-22T11:51:33.816Z,2.47
2018-06-22T11:56:35.978Z,2.33
2018-06-22T12:01:38.210Z,2.90
2018-06-22T12:06:40.451Z,2.20
2018-06-22T12:11:42.708Z,2.67
2018-06-22T12:16:44.875Z,2.57
2018-06-22T12:21:47.079Z,2.97
2018-06-22T12:26:49.253Z,3.80
2018-06-22T12:31:52.169Z,2.00
2018-06-22T12:36:54.356Z,2.10
2018-06-22T12:41:56.587Z,2.40
2018-06-22T12:46:58.803Z,1.97
2018-06-22T12:52:00.993Z,2.20
2018-06-22T12:57:03.247Z,2.30
2018-06-22T13:02:05.699Z,2.50
2018-06-22T13:07:07.897Z,2.43
2018-06-22T13:12:10.098Z,2.77
2018-06-22T13:17:12.446Z,2.40
2018-06-22T13:22:14.701Z,2.60
2018-06-22T13:27:16.864Z,2.63
2018-06-22T13:32:19.091Z,2.23
2018-06-22T13:37:21.278Z,2.07
2018-06-22T13:42:23.494Z,2.43
2018-06-22T13:47:25.701Z,3.30
2018-06-22T13:52:28.583Z,2.63
2018-06-22T13:57:30.808Z,2.50
2018-06-22T14:02:32.983Z,2.37
2018-06-22T14:07:35.196Z,2.07
2018-06-22T14:12:37.413Z,2.43
2018-06-22T14:17:39.710Z,2.73
2018-06-22T14:22:42.354Z,2.27
2018-06-22T14:27:44.611Z,2.60
2018-06-22T14:32:46.845Z,3.13
2018-06-22T14:37:49.127Z,2.80
2018-06-22T14:42:51.443Z,3.03
2018-06-22T14:47:53.645Z,2.73
2018-06-22T14:52:55.883Z,2.17
2018-06-22T14:58:03.700Z,1.90
2018-06-22T15:03:11.611Z,2.60
2018-06-22T15:08:18.658Z,2.67
2018-06-22T15:13:20.864Z,3.73
2018-06-22T15:18:23.053Z,2.93
2018-06-22T15:23:25.317Z,2.23
2018-06-22T15:28:27.524Z,2.43
2018-06-22T15:33:35.408Z,2.83
2018-06-22T15:38:43.316Z,3.00
2018-06-22T15:43:51.266Z,2.33
2018-06-22T15:48:59.243Z,3.33
2018-06-22T15:54:07.075Z,3.40
2018-06-22T15:59:09.343Z,2.13
2018-06-22T16:04:12.301Z,2.90
2018-06-22T16:09:14.488Z,3.50
2018-06-22T16:14:22.456Z,2.60
2018-06-22T16:19:30.408Z,2.77
2018-06-22T16:24:38.138Z,2.50
2018-06-22T16:29:40.323Z,2.70
2018-06-22T16:34:42.499Z,3.20
2018-06-22T16:39:44.719Z,4.27
2018-06-22T16:44:46.850Z,3.63
2018-06-22T16:49:49.017Z,2.87
2018-06-22T16:54:51.218Z,3.27
2018-06-22T16:59:53.392Z,2.60
2018-06-22T17:04:55.588Z,3.23
2018-06-22T17:10:03.526Z,3.53
2018-06-22T17:15:11.533Z,2.93
2018-06-22T17:20:13.721Z,2.17
2018-06-22T17:25:15.894Z,2.40
2018-06-22T17:30:18.063Z,2.53
2018-06-22T17:35:20.234Z,2.43
2018-06-22T17:40:22.412Z,3.40
2018-06-22T17:45:24.606Z,3.00
2018-06-22T17:50:29.100Z,2.77
2018-06-22T17:55:31.290Z,3.30
2018-06-22T18:00:39.125Z,3.50
2018-06-22T18:05:47.122Z,2.80
2018-06-22T18:10:55.113Z,2.73
2018-06-22T18:15:57.325Z,3.50
2018-06-22T18:21:00.296Z,2.90
2018-06-22T18:26:02.548Z,3.10
2018-06-22T18:31:04.976Z,2.30
2018-06-22T18:36:07.147Z,2.87
2018-06-22T18:41:09.348Z,1.83
2018-06-22T18:46:11.549Z,1.83
2018-06-22T18:51:13.757Z,2.23
2018-06-22T18:56:21.746Z,1.70
2018-06-22T19:01:29.745Z,2.20
2018-06-22T19:06:31.942Z,2.47
2018-06-22T19:11:34.152Z,2.67
2018-06-22T19:16:36.473Z,2.40
2018-06-22T19:21:38.770Z,3.37
2018-06-22T19:26:40.996Z,2.63
2018-06-22T19:31:43.193Z,2.30
2018-06-22T19:36:45.385Z,2.80
2018-06-22T19:41:47.591Z,2.70
2018-06-22T19:46:55.656Z,3.27
2018-06-22T19:52:03.522Z,3.47
2018-06-22T19:57:05.730Z,3.83
2018-06-22T20:02:07.949Z,3.40
2018-06-22T20:07:10.200Z,5.40
2018-06-22T20:12:12.400Z,3.97
2018-06-22T20:17:14.664Z,4.90
2018-06-22T20:22:16.854Z,4.13
2018-06-22T20:27:19.045Z,5.73
2018-06-22T20:32:21.284Z,4.60
2018-06-22T20:37:29.174Z,4.47
2018-06-22T20:42:37.098Z,4.20
2018-06-22T20:47:45.061Z,5.07
2018-06-22T20:52:47.237Z,6.07
2018-06-22T20:57:49.433Z,3.70
2018-06-22T21:02:51.633Z,4.63
2018-06-22T21:07:53.797Z,4.37
2018-06-22T21:12:56.147Z,4.80
2018-06-22T21:17:58.344Z,4.23
2018-06-22T21:23:00.533Z,4.27
2018-06-22T21:28:08.441Z,5.27
2018-06-22T21:33:16.428Z,5.17
2018-06-22T21:39:24.568Z,3.93
2018-06-22T21:44:26.782Z,5.53
2018-06-22T21:49:29.046Z,4.77
2018-06-22T21:54:31.264Z,5.30
2018-06-22T21:59:33.452Z,4.53
2018-06-22T22:04:35.619Z,4.30
2018-06-22T22:09:40.781Z,4.60
2018-06-22T22:14:42.993Z,4.63
2018-06-22T22:19:45.183Z,4.70
2018-06-22T22:24:47.441Z,4.90
2018-06-22T22:29:49.674Z,4.63
2018-06-22T22:34:51.929Z,5.33
2018-06-22T22:39:54.073Z,5.73
2018-06-22T22:44:56.360Z,5.70
2018-06-22T22:49:58.549Z,4.13
2018-06-22T22:55:01.273Z,5.70
2018-06-22T23:00:03.510Z,4.90
2018-06-22T23:05:05.696Z,4.53
2018-06-22T23:10:07.937Z,4.70
2018-06-22T23:15:10.175Z,4.13
2018-06-22T23:20:12.390Z,5.10
2018-06-22T23:25:14.769Z,4.50
2018-06-22T23:30:17.129Z,5.93
2018-06-22T23:35:24.187Z,5.27
2018-06-22T23:40:26.338Z,5.17
2018-06-22T23:45:28.524Z,4.53
2018-06-22T23:50:30.727Z,4.50
2018-06-22T23:55:33.157Z,3.87
